createdAt,value
2018-07-16T00:00:57.283Z,99.90
2018-07-16T00:03:26.927Z,99.90
2018-07-16T00:05:57.091Z,99.90
2018-07-16T00:10:55.797Z,99.90
2018-07-16T00:13:25.289Z,99.90
2018-07-16T00:15:54.673Z,99.90
2018-07-16T00:18:24.237Z,99.90
2018-07-16T00:20:53.791Z,99.90
2018-07-16T00:23:25.779Z,99.90
2018-07-16T00:25:55.362Z,99.90
2018-07-16T00:28:24.907Z,99.90
2018-07-16T00:30:54.622Z,99.90
2018-07-16T00:33:24.782Z,99.90
2018-07-16T00:35:54.724Z,99.90
2018-07-16T00:38:24.196Z,99.90
2018-07-16T00:40:53.552Z,99.90
2018-07-16T00:45:54.182Z,99.90
2018-07-16T00:48:23.848Z,99.90
2018-07-16T00:50:53.871Z,99.90
2018-07-16T00:53:23.384Z,99.90
2018-07-16T00:55:52.836Z,99.90
2018-07-16T00:58:23.142Z,99.90
2018-07-16T01:00:52.444Z,99.90
2018-07-16T01:03:21.670Z,99.90
2018-07-16T01:05:51.094Z,99.90
2018-07-16T01:10:49.162Z,99.90
2018-07-16T01:13:18.448Z,99.90
2018-07-16T01:15:48.195Z,99.90
2018-07-16T01:18:17.617Z,99.90
2018-07-16T01:20:47.679Z,99.90
2018-07-16T01:23:17.729Z,99.90
2018-07-16T01:25:47.207Z,99.90
2018-07-16T01:28:16.539Z,99.90
2018-07-16T01:30:46.175Z,99.90
2018-07-16T01:35:44.658Z,99.90
2018-07-16T01:38:14.805Z,99.90
2018-07-16T01:40:44.612Z,99.90
2018-07-16T01:43:14.237Z,99.90
2018-07-16T01:45:44.313Z,99.90
2018-07-16T01:48:13.892Z,99.90
2018-07-16T01:50:43.376Z,99.90
2018-07-16T01:53:13.688Z,99.90
2018-07-16T01:55:44.010Z,99.90
2018-07-16T01:58:15.426Z,99.90
2018-07-16T02:00:56.749Z,99.90
2018-07-16T02:03:28.393Z,99.90
2018-07-16T02:05:57.980Z,99.90
2018-07-16T02:08:28.722Z,99.90
2018-07-16T02:10:58.666Z,99.90
2018-07-16T02:13:28.704Z,99.90
2018-07-16T02:15:58.962Z,99.90
2018-07-16T02:18:28.709Z,99.90
2018-07-16T02:23:27.236Z,99.90
2018-07-16T02:25:56.894Z,99.90
2018-07-16T02:28:27.205Z,99.90
2018-07-16T02:30:57.058Z,99.90
2018-07-16T02:33:26.720Z,99.90
2018-07-16T02:35:56.110Z,99.90
2018-07-16T02:38:25.672Z,99.90
2018-07-16T02:40:55.270Z,99.90
2018-07-16T02:43:24.740Z,99.90
2018-07-16T02:45:54.514Z,99.90
2018-07-16T02:48:24.590Z,99.90
2018-07-16T02:50:53.994Z,99.90
2018-07-16T02:53:23.551Z,99.90
2018-07-16T02:55:53.252Z,99.90
2018-07-16T02:58:23.001Z,99.90
2018-07-16T03:00:53.247Z,99.90
2018-07-16T03:03:22.714Z,99.90
2018-07-16T03:05:52.304Z,99.90
2018-07-16T03:08:22.435Z,99.90
2018-07-16T03:10:52.135Z,99.90
2018-07-16T03:13:22.032Z,99.90
2018-07-16T03:15:51.524Z,99.90
2018-07-16T03:18:21.654Z,99.90
2018-07-16T03:20:51.266Z,99.90
2018-07-16T03:23:20.787Z,99.90
2018-07-16T03:25:50.317Z,99.90
2018-07-16T03:28:19.819Z,99.90
2018-07-16T03:30:49.293Z,99.90
2018-07-16T03:33:18.610Z,99.90
2018-07-16T03:35:48.237Z,99.90
2018-07-16T03:38:17.922Z,99.90
2018-07-16T03:40:47.274Z,99.90
2018-07-16T03:43:17.037Z,99.90
2018-07-16T03:45:46.734Z,99.90
2018-07-16T03:48:16.395Z,99.90
2018-07-16T03:50:46.343Z,99.90
2018-07-16T03:53:16.737Z,99.90
2018-07-16T03:55:46.364Z,99.90
2018-07-16T03:58:15.762Z,99.90
2018-07-16T04:00:45.236Z,99.90
2018-07-16T04:03:14.484Z,99.90
2018-07-16T04:05:43.851Z,99.90
2018-07-16T04:08:16.578Z,99.90
2018-07-16T04:10:45.941Z,99.90
2018-07-16T04:13:16.420Z,99.90
2018-07-16T04:15:46.133Z,99.90
2018-07-16T04:18:18.836Z,99.90
2018-07-16T04:20:49.025Z,99.90
2018-07-16T04:23:19.311Z,99.90
2018-07-16T04:25:48.877Z,99.90
2018-07-16T04:28:19.367Z,99.90
2018-07-16T04:30:49.262Z,99.90
2018-07-16T04:33:19.459Z,99.90
2018-07-16T04:35:48.840Z,99.90
2018-07-16T04:43:18.474Z,99.90
2018-07-16T04:48:18.405Z,99.90
2018-07-16T04:50:48.129Z,99.90
2018-07-16T04:53:18.067Z,99.90
2018-07-16T04:55:47.728Z,99.90
2018-07-16T04:58:17.327Z,99.90
2018-07-16T05:00:47.008Z,99.90
2018-07-16T05:03:16.741Z,99.90
2018-07-16T05:05:46.255Z,99.90
2018-07-16T05:08:16.066Z,99.90
2018-07-16T05:10:45.687Z,99.90
2018-07-16T05:13:15.159Z,99.90
2018-07-16T05:15:45.387Z,99.90
2018-07-16T05:18:16.527Z,99.90
2018-07-16T05:20:46.553Z,99.90
2018-07-16T05:23:17.614Z,99.90
2018-07-16T05:25:47.025Z,99.90
2018-07-16T05:28:17.287Z,99.90
2018-07-16T05:30:47.878Z,99.90
2018-07-16T05:33:17.503Z,99.90
2018-07-16T05:35:47.235Z,99.90
2018-07-16T05:38:17.299Z,99.90
2018-07-16T05:40:47.143Z,99.90
2018-07-16T05:43:16.914Z,99.90
2018-07-16T05:45:47.021Z,99.90
2018-07-16T05:48:17.779Z,99.90
2018-07-16T05:50:47.376Z,99.90
2018-07-16T05:53:18.539Z,99.90
2018-07-16T05:55:48.571Z,99.90
2018-07-16T05:58:19.194Z,99.90
2018-07-16T06:03:18.021Z,99.90
2018-07-16T06:05:47.526Z,99.90
2018-07-16T06:08:17.044Z,99.90
2018-07-16T06:10:46.684Z,99.90
2018-07-16T06:13:16.262Z,99.90
2018-07-16T06:15:47.170Z,99.90
2018-07-16T06:18:17.150Z,99.90
2018-07-16T06:20:47.364Z,99.90
2018-07-16T06:23:17.108Z,99.90
2018-07-16T06:25:46.910Z,99.90
2018-07-16T06:29:20.322Z,99.90
2018-07-16T06:31:50.675Z,99.90
2018-07-16T06:34:20.461Z,99.90
2018-07-16T06:36:50.743Z,99.90
2018-07-16T06:41:50.934Z,99.90
2018-07-16T06:44:20.691Z,99.90
2018-07-16T06:49:19.893Z,99.90
2018-07-16T06:51:49.650Z,99.90
2018-07-16T06:54:19.223Z,99.90
2018-07-16T06:56:48.622Z,99.90
2018-07-16T06:59:18.186Z,99.90
2018-07-16T07:01:49.267Z,99.90
2018-07-16T07:04:18.880Z,99.90
2018-07-16T07:06:49.003Z,99.90
2018-07-16T07:09:18.936Z,99.90
2018-07-16T07:14:17.421Z,99.90
2018-07-16T07:16:47.352Z,99.90
2018-07-16T07:19:17.777Z,99.90
2018-07-16T07:21:49.564Z,99.90
2018-07-16T07:24:19.228Z,99.90
2018-07-16T07:26:48.792Z,99.90
2018-07-16T07:29:19.641Z,99.90
2018-07-16T07:36:47.161Z,99.90
2018-07-16T07:39:16.549Z,99.90
2018-07-16T07:41:46.120Z,99.90
2018-07-16T07:44:15.646Z,98.30
2018-07-16T07:46:45.214Z,98.80
2018-07-16T07:49:14.531Z,97.90
2018-07-16T07:51:44.272Z,99.90
2018-07-16T07:59:12.977Z,94.10
2018-07-16T08:01:42.687Z,95.20
2018-07-16T08:04:12.265Z,92.90
2018-07-16T08:06:43.509Z,92.20
2018-07-16T08:09:13.290Z,91.80
2018-07-16T08:11:42.719Z,92.70
2018-07-16T08:14:12.749Z,90.40
2018-07-16T08:16:42.297Z,90.30
2018-07-16T08:19:11.998Z,89.40
2018-07-16T08:24:10.614Z,85.20
2018-07-16T08:29:08.868Z,83.30
2018-07-16T08:31:38.300Z,85.50
2018-07-16T08:34:08.087Z,79.90
2018-07-16T08:36:37.702Z,79.80
2018-07-16T08:39:07.163Z,77.60
2018-07-16T08:41:36.744Z,79.30
2018-07-16T08:44:06.247Z,78.30
2018-07-16T08:46:35.661Z,80.00
2018-07-16T08:49:05.677Z,78.50
2018-07-16T08:51:35.053Z,74.60
2018-07-16T08:54:04.455Z,76.50
2018-07-16T08:56:33.860Z,77.20
2018-07-16T08:59:04.442Z,77.20
2018-07-16T09:04:03.424Z,70.90
2018-07-16T09:06:32.943Z,71.20
2018-07-16T09:09:02.604Z,70.90
2018-07-16T09:14:01.934Z,64.30
2018-07-16T09:16:31.291Z,69.50
2018-07-16T09:19:01.301Z,62.40
2018-07-16T09:21:31.526Z,64.60
2018-07-16T09:24:01.065Z,65.90
2018-07-16T09:26:30.453Z,66.20
2018-07-16T09:28:59.973Z,61.90
2018-07-16T09:31:29.458Z,64.90
2018-07-16T09:33:59.423Z,63.30
2018-07-16T09:36:29.052Z,64.60
2018-07-16T09:38:58.548Z,60.60
2018-07-16T09:43:57.901Z,57.90
2018-07-16T09:46:27.415Z,57.20
2018-07-16T09:48:56.924Z,58.30
2018-07-16T09:51:26.731Z,59.90
2018-07-16T09:53:56.081Z,59.00
2018-07-16T09:56:26.398Z,57.80
2018-07-16T09:58:56.309Z,59.80
2018-07-16T10:01:31.683Z,58.70
2018-07-16T10:04:01.147Z,59.50
2018-07-16T10:06:30.506Z,57.80
2018-07-16T10:09:00.180Z,59.70
2018-07-16T10:11:30.012Z,58.20
2018-07-16T10:14:00.671Z,61.40
2018-07-16T10:16:30.220Z,61.90
2018-07-16T10:19:00.249Z,61.20
2018-07-16T10:23:59.391Z,55.70
2018-07-16T10:26:29.096Z,59.10
2018-07-16T10:28:58.616Z,55.50
2018-07-16T10:31:28.033Z,54.30
2018-07-16T10:33:57.758Z,55.70
2018-07-16T10:38:56.510Z,55.20
2018-07-16T10:46:23.747Z,58.90
2018-07-16T10:48:53.861Z,57.80
2018-07-16T10:51:23.829Z,54.70
2018-07-16T10:53:54.118Z,55.80
2018-07-16T10:56:24.386Z,56.10
2018-07-16T10:58:54.049Z,54.20
2018-07-16T11:01:24.232Z,54.60
2018-07-16T11:03:54.405Z,54.70
2018-07-16T11:06:24.967Z,54.20
2018-07-16T11:08:55.197Z,55.70
2018-07-16T11:11:25.536Z,54.20
2018-07-16T11:13:55.057Z,55.20
2018-07-16T11:16:25.529Z,56.10
2018-07-16T11:18:55.171Z,56.10
2018-07-16T11:21:24.486Z,55.70
2018-07-16T11:23:54.079Z,53.20
2018-07-16T11:26:24.656Z,51.80
2018-07-16T11:28:54.283Z,54.10
2018-07-16T11:31:23.847Z,50.80
2018-07-16T11:33:54.079Z,52.00
2018-07-16T11:36:23.824Z,52.10
2018-07-16T11:38:53.454Z,50.90
2018-07-16T11:41:22.985Z,50.40
2018-07-16T11:43:52.386Z,51.50
2018-07-16T11:46:21.872Z,50.60
2018-07-16T11:48:51.497Z,52.70
2018-07-16T11:51:21.168Z,53.50
2018-07-16T11:53:50.751Z,54.50
2018-07-16T11:56:20.418Z,54.50
2018-07-16T11:58:49.817Z,51.40
2018-07-16T12:01:20.145Z,53.00
2018-07-16T12:03:49.701Z,54.00
2018-07-16T12:06:25.715Z,53.90
2018-07-16T12:08:56.187Z,52.30
2018-07-16T12:13:54.711Z,52.70
2018-07-16T12:16:24.863Z,51.60
2018-07-16T12:22:05.594Z,51.10
2018-07-16T12:24:35.283Z,51.00
2018-07-16T12:27:04.694Z,52.20
2018-07-16T12:29:34.262Z,51.00
2018-07-16T12:32:03.824Z,48.60
2018-07-16T12:34:33.393Z,50.90
2018-07-16T12:37:04.767Z,49.10
2018-07-16T12:39:34.202Z,48.60
2018-07-16T12:42:03.595Z,47.70
2018-07-16T12:44:32.970Z,48.60
2018-07-16T12:47:02.553Z,48.50
2018-07-16T12:49:32.805Z,49.10
2018-07-16T12:52:02.145Z,49.30
2018-07-16T12:57:00.240Z,49.90
2018-07-16T12:59:30.246Z,49.60
2018-07-16T13:01:59.729Z,50.40
2018-07-16T13:04:29.126Z,48.50
2018-07-16T13:06:58.577Z,49.70
2018-07-16T13:09:28.237Z,48.10
2018-07-16T13:11:58.096Z,49.10
2018-07-16T13:14:27.758Z,49.40
2018-07-16T13:16:57.457Z,49.60
2018-07-16T13:19:26.891Z,48.60
2018-07-16T13:21:56.277Z,48.00
2018-07-16T13:24:26.471Z,47.90
2018-07-16T13:26:55.807Z,47.70
2018-07-16T13:31:54.712Z,46.60
2018-07-16T13:34:24.333Z,46.60
2018-07-16T13:36:53.951Z,45.90
2018-07-16T13:39:23.955Z,45.40
2018-07-16T13:41:53.505Z,44.20
2018-07-16T13:44:22.830Z,44.30
2018-07-16T13:46:52.354Z,45.00
2018-07-16T13:49:21.903Z,45.60
2018-07-16T13:51:51.233Z,46.90
2018-07-16T13:54:20.784Z,45.50
2018-07-16T13:56:50.251Z,44.60
2018-07-16T14:01:54.105Z,44.90
2018-07-16T14:04:24.069Z,45.10
2018-07-16T14:06:53.688Z,44.60
2018-07-16T14:09:23.675Z,44.60
2018-07-16T14:11:53.499Z,45.30
2018-07-16T14:14:23.063Z,46.00
2018-07-16T14:16:53.401Z,45.80
2018-07-16T14:19:22.956Z,47.20
2018-07-16T14:21:52.348Z,46.90
2018-07-16T14:24:21.952Z,48.30
2018-07-16T14:26:53.305Z,46.70
2018-07-16T14:29:23.460Z,47.40
2018-07-16T14:31:52.811Z,47.30
2018-07-16T14:34:22.155Z,48.20
2018-07-16T14:36:51.917Z,49.50
2018-07-16T14:39:21.978Z,51.50
2018-07-16T14:41:52.210Z,49.50
2018-07-16T14:44:22.140Z,49.50
2018-07-16T14:46:52.145Z,51.10
2018-07-16T14:49:22.643Z,50.30
2018-07-16T14:51:52.194Z,52.30
2018-07-16T14:54:21.711Z,50.40
2018-07-16T14:56:51.385Z,56.40
2018-07-16T14:59:21.509Z,55.70
2018-07-16T15:01:51.764Z,58.20
2018-07-16T15:04:21.578Z,62.20
2018-07-16T15:09:22.782Z,62.20
2018-07-16T15:11:54.177Z,60.50
2018-07-16T15:14:23.810Z,60.50
2018-07-16T15:16:53.341Z,57.90
2018-07-16T15:19:23.172Z,61.40
2018-07-16T15:21:53.144Z,69.10
2018-07-16T15:24:22.705Z,70.90
2018-07-16T15:29:22.516Z,55.00
2018-07-16T15:31:52.053Z,56.00
2018-07-16T15:34:21.907Z,56.80
2018-07-16T15:39:20.639Z,55.30
2018-07-16T15:41:51.339Z,55.40
2018-07-16T15:44:22.169Z,56.30
2018-07-16T15:46:52.538Z,56.70
2018-07-16T15:49:23.062Z,55.90
2018-07-16T15:51:52.632Z,55.70
2018-07-16T15:54:22.438Z,54.10
2018-07-16T15:56:53.191Z,54.30
2018-07-16T15:59:23.520Z,54.10
2018-07-16T16:01:53.083Z,54.60
2018-07-16T16:06:51.928Z,54.40
2018-07-16T16:09:21.396Z,55.10
2018-07-16T16:11:51.349Z,55.10
2018-07-16T16:14:20.854Z,54.50
2018-07-16T16:16:50.319Z,55.10
2018-07-16T16:19:19.934Z,55.70
2018-07-16T16:24:18.590Z,55.20
2018-07-16T16:26:48.801Z,54.80
2018-07-16T16:29:18.313Z,56.40
2018-07-16T16:31:48.716Z,56.70
2018-07-16T16:34:18.119Z,61.00
2018-07-16T16:36:47.658Z,62.80
2018-07-16T16:39:17.313Z,65.60
2018-07-16T16:41:47.558Z,67.10
2018-07-16T16:44:17.252Z,69.00
2018-07-16T16:46:47.409Z,69.80
2018-07-16T16:49:17.749Z,70.50
2018-07-16T16:51:48.307Z,71.60
2018-07-16T16:54:17.931Z,72.50
2018-07-16T16:56:48.862Z,73.80
2018-07-16T16:59:19.172Z,74.00
2018-07-16T17:01:48.971Z,75.90
2018-07-16T17:05:48.371Z,76.20
2018-07-16T17:08:19.119Z,77.40
2018-07-16T17:10:48.806Z,74.70
2018-07-16T17:13:19.136Z,74.30
2018-07-16T17:15:48.582Z,74.40
2018-07-16T17:18:18.591Z,75.30
2018-07-16T17:20:48.451Z,75.90
2018-07-16T17:23:19.425Z,76.40
2018-07-16T17:25:48.958Z,78.10
2018-07-16T17:28:19.078Z,77.60
2018-07-16T17:30:49.792Z,77.20
2018-07-16T17:33:20.023Z,77.20
2018-07-16T17:35:49.396Z,77.40
2018-07-16T17:38:19.765Z,78.20
2018-07-16T17:40:51.800Z,78.70
2018-07-16T17:43:27.281Z,79.80
2018-07-16T17:45:57.223Z,80.40
2018-07-16T17:48:27.595Z,82.70
2018-07-16T17:50:59.067Z,83.40
2018-07-16T17:53:29.214Z,83.30
2018-07-16T17:56:00.213Z,84.20
2018-07-16T17:58:29.799Z,83.80
2018-07-16T18:01:00.402Z,85.20
2018-07-16T18:03:31.244Z,85.90
2018-07-16T18:06:01.641Z,87.10
2018-07-16T18:08:31.715Z,87.10
2018-07-16T18:11:01.618Z,87.50
2018-07-16T18:13:31.818Z,87.80
2018-07-16T18:16:01.430Z,87.60
2018-07-16T18:18:31.405Z,87.90
2018-07-16T18:21:01.062Z,88.70
2018-07-16T18:23:31.342Z,88.00
2018-07-16T18:26:02.434Z,88.70
2018-07-16T18:28:31.890Z,88.30
2018-07-16T18:31:03.497Z,88.90
2018-07-16T18:33:33.410Z,89.40
2018-07-16T18:36:02.920Z,89.80
2018-07-16T18:38:32.714Z,90.20
2018-07-16T18:41:05.005Z,90.00
2018-07-16T18:43:34.847Z,90.00
2018-07-16T18:46:08.024Z,90.40
2018-07-16T18:48:38.367Z,90.50
2018-07-16T18:51:08.611Z,91.00
2018-07-16T18:56:09.399Z,91.30
2018-07-16T18:58:44.124Z,91.80
2018-07-16T19:01:15.403Z,91.80
2018-07-16T19:03:45.510Z,91.90
2018-07-16T19:06:16.640Z,91.80
2018-07-16T19:08:46.933Z,92.10
2018-07-16T19:11:17.219Z,92.00
2018-07-16T19:13:47.723Z,92.60
2018-07-16T19:16:17.703Z,92.70
2018-07-16T19:18:48.147Z,92.90
2018-07-16T19:21:19.637Z,93.10
2018-07-16T19:23:50.575Z,93.30
2018-07-16T19:26:20.717Z,93.80
2018-07-16T19:28:50.489Z,94.30
2018-07-16T19:31:21.301Z,94.50
2018-07-16T19:33:50.953Z,94.70
2018-07-16T19:36:20.884Z,94.90
2018-07-16T19:38:50.848Z,94.90
2018-07-16T19:41:21.736Z,95.30
2018-07-16T19:43:52.001Z,95.40
2018-07-16T19:48:50.855Z,95.80
2018-07-16T19:51:20.728Z,95.80
2018-07-16T19:53:50.954Z,95.70
2018-07-16T19:56:21.290Z,95.80
2018-07-16T19:58:51.637Z,96.10
2018-07-16T20:01:22.485Z,96.50
2018-07-16T20:03:52.335Z,96.50
2018-07-16T20:06:21.781Z,97.00
2018-07-16T20:08:54.282Z,96.90
2018-07-16T20:11:24.267Z,97.10
2018-07-16T20:13:54.170Z,97.30
2018-07-16T20:16:26.703Z,97.60
2018-07-16T20:19:03.065Z,98.20
2018-07-16T20:21:33.297Z,98.30
2018-07-16T20:24:03.748Z,98.80
2018-07-16T20:26:34.113Z,99.60
2018-07-16T20:29:03.865Z,99.80
2018-07-16T20:31:33.308Z,99.30
2018-07-16T20:37:03.060Z,99.20
2018-07-16T20:42:08.715Z,99.50
2018-07-16T20:44:38.233Z,99.90
2018-07-16T20:47:07.746Z,99.90
2018-07-16T20:52:09.418Z,99.90
2018-07-16T20:54:39.899Z,99.90
2018-07-16T20:57:09.414Z,99.90
2018-07-16T20:59:38.734Z,99.90
2018-07-16T21:02:08.845Z,99.90
2018-07-16T21:04:38.920Z,99.90
2018-07-16T21:07:08.911Z,99.90
2018-07-16T21:09:38.319Z,99.90
2018-07-16T21:14:36.917Z,99.90
2018-07-16T21:17:06.688Z,99.90
2018-07-16T21:19:36.336Z,99.90
2018-07-16T21:22:06.247Z,99.90
2018-07-16T21:24:35.941Z,99.90
2018-07-16T21:27:06.296Z,99.90
2018-07-16T21:29:35.928Z,99.90
2018-07-16T21:34:34.694Z,99.90
2018-07-16T21:37:04.598Z,99.90
2018-07-16T21:39:34.108Z,99.90
2018-07-16T21:42:03.806Z,99.90
2018-07-16T21:44:33.220Z,99.90
2018-07-16T21:47:02.548Z,99.90
2018-07-16T21:49:32.022Z,99.90
2018-07-16T21:52:03.762Z,99.90
2018-07-16T21:54:33.494Z,99.90
2018-07-16T21:57:03.786Z,99.90
2018-07-16T21:59:33.226Z,99.90
2018-07-16T22:02:02.686Z,99.90
2018-07-16T22:04:32.314Z,99.90
2018-07-16T22:09:31.822Z,99.90
2018-07-16T22:12:02.060Z,99.90
2018-07-16T22:14:32.368Z,99.90
2018-07-16T22:17:01.884Z,99.90
2018-07-16T22:22:00.293Z,99.90
2018-07-16T22:24:29.733Z,99.90
2018-07-16T22:26:59.301Z,99.90
2018-07-16T22:29:28.769Z,99.90
2018-07-16T22:31:58.506Z,99.90
2018-07-16T22:34:28.829Z,99.90
2018-07-16T22:36:58.795Z,99.90
2018-07-16T22:39:28.537Z,99.90
2018-07-16T22:41:58.740Z,99.90
2018-07-16T22:44:28.289Z,99.90
2018-07-16T22:46:57.881Z,99.90
2018-07-16T22:49:28.340Z,99.90
2018-07-16T22:51:58.227Z,99.90
2018-07-16T22:54:27.596Z,99.90
2018-07-16T22:56:57.273Z,99.90
2018-07-16T22:59:26.975Z,99.90
2018-07-16T23:01:58.455Z,99.90
2018-07-16T23:04:28.697Z,99.90
2018-07-16T23:06:58.396Z,99.90
2018-07-16T23:09:28.038Z,99.90
2018-07-16T23:11:57.298Z,99.90
2018-07-16T23:14:27.042Z,99.90
2018-07-16T23:16:56.551Z,99.90
2018-07-16T23:19:26.211Z,99.90
2018-07-16T23:21:55.500Z,99.90
2018-07-16T23:24:24.888Z,99.90
2018-07-16T23:26:54.351Z,99.90
2018-07-16T23:29:24.905Z,99.90
2018-07-16T23:31:54.318Z,99.90
2018-07-16T23:34:23.853Z,99.90
2018-07-16T23:36:53.460Z,99.90
2018-07-16T23:39:23.360Z,99.90
2018-07-16T23:41:53.009Z,99.90
2018-07-16T23:44:22.562Z,99.90
2018-07-16T23:46:52.026Z,99.90
2018-07-16T23:49:22.377Z,99.90
2018-07-16T23:51:52.031Z,99.90
2018-07-16T23:54:21.782Z,99.90
2018-07-16T23:56:52.127Z,99.90
2018-07-16T23:59:22.184Z,99.90
